sensor_id;sensor_type;location;lat;lon;timestamp;P1;durP1;ratioP1;P2;durP2;ratioP2
66800;SDS011;53703;50.326;19.122;2023-06-19T00:01:36;13.40;;;7.60;;
66800;SDS011;53703;50.326;19.122;2023-06-19T00:04:30;12.40;;;7.60;;
66800;SDS011;53703;50.326;19.122;2023-06-19T00:07:24;13.50;;;7.30;;
66800;SDS011;53703;50.326;19.122;2023-06-19T00:10:19;11.40;;;7.50;;
66800;SDS011;53703;50.326;19.122;2023-06-19T00:13:14;11.50;;;7.30;;
66800;SDS011;53703;50.326;19.122;2023-06-19T00:16:08;12.10;;;7.80;;
66800;SDS011;53703;50.326;19.122;2023-06-19T00:19:02;11.00;;;7.10;;
66800;SDS011;53703;50.326;19.122;2023-06-19T00:21:56;11.60;;;7.30;;
66800;SDS011;53703;50.326;19.122;2023-06-19T00:24:51;15.50;;;7.50;;
66800;SDS011;53703;50.326;19.122;2023-06-19T00:27:45;13.30;;;7.60;;
66800;SDS011;53703;50.326;19.122;2023-06-19T00:30:26;13.50;;;6.90;;
66800;SDS011;53703;50.326;19.122;2023-06-19T00:33:23;12.00;;;7.40;;
66800;SDS011;53703;50.326;19.122;2023-06-19T00:36:18;12.60;;;7.70;;
66800;SDS011;53703;50.326;19.122;2023-06-19T00:39:12;11.80;;;7.10;;
66800;SDS011;53703;50.326;19.122;2023-06-19T00:42:07;12.80;;;7.50;;
66800;SDS011;53703;50.326;19.122;2023-06-19T00:45:01;12.10;;;7.70;;
66800;SDS011;53703;50.326;19.122;2023-06-19T00:47:56;13.40;;;7.70;;
66800;SDS011;53703;50.326;19.122;2023-06-19T00:50:51;12.80;;;7.50;;
66800;SDS011;53703;50.326;19.122;2023-06-19T00:53:45;13.10;;;7.30;;
66800;SDS011;53703;50.326;19.122;2023-06-19T00:56:39;14.90;;;7.30;;
66800;SDS011;53703;50.326;19.122;2023-06-19T00:59:33;11.70;;;7.00;;
66800;SDS011;53703;50.326;19.122;2023-06-19T01:02:28;14.00;;;7.60;;
66800;SDS011;53703;50.326;19.122;2023-06-19T01:05:22;13.80;;;7.50;;
66800;SDS011;53703;50.326;19.122;2023-06-19T01:08:22;15.20;;;7.70;;
66800;SDS011;53703;50.326;19.122;2023-06-19T01:11:36;13.50;;;7.80;;
66800;SDS011;53703;50.326;19.122;2023-06-19T01:14:35;14.20;;;8.40;;
66800;SDS011;53703;50.326;19.122;2023-06-19T01:17:31;12.10;;;7.30;;
66800;SDS011;53703;50.326;19.122;2023-06-19T01:20:27;13.00;;;7.90;;
66800;SDS011;53703;50.326;19.122;2023-06-19T01:23:22;11.00;;;7.20;;
66800;SDS011;53703;50.326;19.122;2023-06-19T01:26:17;12.90;;;7.80;;
66800;SDS011;53703;50.326;19.122;2023-06-19T01:29:12;13.60;;;7.70;;
66800;SDS011;53703;50.326;19.122;2023-06-19T01:32:10;13.20;;;7.20;;
66800;SDS011;53703;50.326;19.122;2023-06-19T01:35:09;13.20;;;7.80;;
66800;SDS011;53703;50.326;19.122;2023-06-19T01:38:06;14.50;;;7.80;;
66800;SDS011;53703;50.326;19.122;2023-06-19T01:41:02;14.30;;;8.30;;
66800;SDS011;53703;50.326;19.122;2023-06-19T01:43:58;13.40;;;7.90;;
66800;SDS011;53703;50.326;19.122;2023-06-19T01:46:54;13.00;;;7.70;;
66800;SDS011;53703;50.326;19.122;2023-06-19T01:49:48;13.20;;;7.70;;
66800;SDS011;53703;50.326;19.122;2023-06-19T01:52:43;13.40;;;7.90;;
66800;SDS011;53703;50.326;19.122;2023-06-19T01:55:26;12.70;;;7.90;;
66800;SDS011;53703;50.326;19.122;2023-06-19T01:58:20;13.80;;;7.90;;
66800;SDS011;53703;50.326;19.122;2023-06-19T02:01:14;11.60;;;7.70;;
66800;SDS011;53703;50.326;19.122;2023-06-19T02:04:08;13.90;;;7.40;;
66800;SDS011;53703;50.326;19.122;2023-06-19T02:07:02;13.00;;;7.30;;
66800;SDS011;53703;50.326;19.122;2023-06-19T02:09:56;19.30;;;8.10;;
66800;SDS011;53703;50.326;19.122;2023-06-19T02:12:50;13.30;;;7.10;;
66800;SDS011;53703;50.326;19.122;2023-06-19T02:15:44;12.30;;;7.20;;
66800;SDS011;53703;50.326;19.122;2023-06-19T02:18:38;14.10;;;8.00;;
66800;SDS011;53703;50.326;19.122;2023-06-19T02:21:32;13.20;;;7.30;;
66800;SDS011;53703;50.326;19.122;2023-06-19T02:24:26;13.10;;;7.90;;
66800;SDS011;53703;50.326;19.122;2023-06-19T02:27:20;14.60;;;8.30;;
66800;SDS011;53703;50.326;19.122;2023-06-19T02:30:16;16.50;;;7.20;;
66800;SDS011;53703;50.326;19.122;2023-06-19T02:33:10;16.70;;;8.30;;
66800;SDS011;53703;50.326;19.122;2023-06-19T02:36:04;12.60;;;7.80;;
66800;SDS011;53703;50.326;19.122;2023-06-19T02:38:59;13.30;;;7.70;;
66800;SDS011;53703;50.326;19.122;2023-06-19T02:41:53;14.60;;;7.90;;
66800;SDS011;53703;50.326;19.122;2023-06-19T02:44:47;13.80;;;8.10;;
66800;SDS011;53703;50.326;19.122;2023-06-19T02:47:41;13.60;;;8.00;;
66800;SDS011;53703;50.326;19.122;2023-06-19T02:50:35;12.80;;;7.90;;
66800;SDS011;53703;50.326;19.122;2023-06-19T02:53:29;13.10;;;7.90;;
66800;SDS011;53703;50.326;19.122;2023-06-19T02:56:24;12.40;;;7.50;;
66800;SDS011;53703;50.326;19.122;2023-06-19T02:59:18;15.40;;;8.20;;
66800;SDS011;53703;50.326;19.122;2023-06-19T03:02:12;13.00;;;7.80;;
66800;SDS011;53703;50.326;19.122;2023-06-19T03:05:07;16.90;;;7.90;;
66800;SDS011;53703;50.326;19.122;2023-06-19T03:08:02;13.10;;;7.80;;
66800;SDS011;53703;50.326;19.122;2023-06-19T03:10:56;13.20;;;7.80;;
66800;SDS011;53703;50.326;19.122;2023-06-19T03:13:51;11.60;;;7.40;;
66800;SDS011;53703;50.326;19.122;2023-06-19T03:16:48;12.60;;;7.20;;
66800;SDS011;53703;50.326;19.122;2023-06-19T03:19:43;14.80;;;8.20;;
66800;SDS011;53703;50.326;19.122;2023-06-19T03:22:37;13.80;;;8.20;;
66800;SDS011;53703;50.326;19.122;2023-06-19T03:25:33;13.10;;;7.60;;
66800;SDS011;53703;50.326;19.122;2023-06-19T03:28:28;14.30;;;8.20;;
66800;SDS011;53703;50.326;19.122;2023-06-19T03:31:22;16.00;;;8.00;;
66800;SDS011;53703;50.326;19.122;2023-06-19T03:34:16;13.10;;;7.60;;
66800;SDS011;53703;50.326;19.122;2023-06-19T03:37:10;13.50;;;7.70;;
66800;SDS011;53703;50.326;19.122;2023-06-19T03:40:05;18.70;;;8.60;;
66800;SDS011;53703;50.326;19.122;2023-06-19T03:43:04;16.00;;;8.00;;
66800;SDS011;53703;50.326;19.122;2023-06-19T03:45:58;12.90;;;7.50;;
66800;SDS011;53703;50.326;19.122;2023-06-19T03:48:52;14.00;;;7.70;;
66800;SDS011;53703;50.326;19.122;2023-06-19T03:51:46;13.60;;;7.70;;
66800;SDS011;53703;50.326;19.122;2023-06-19T03:54:39;17.00;;;7.90;;
66800;SDS011;53703;50.326;19.122;2023-06-19T03:57:33;16.90;;;8.60;;
66800;SDS011;53703;50.326;19.122;2023-06-19T04:00:28;14.50;;;8.20;;
66800;SDS011;53703;50.326;19.122;2023-06-19T04:03:22;15.80;;;9.20;;
66800;SDS011;53703;50.326;19.122;2023-06-19T04:06:16;18.10;;;8.50;;
66800;SDS011;53703;50.326;19.122;2023-06-19T04:09:11;13.80;;;7.90;;
66800;SDS011;53703;50.326;19.122;2023-06-19T04:12:06;13.90;;;8.00;;
66800;SDS011;53703;50.326;19.122;2023-06-19T04:15:01;19.70;;;9.10;;
66800;SDS011;53703;50.326;19.122;2023-06-19T04:17:56;15.20;;;8.40;;
66800;SDS011;53703;50.326;19.122;2023-06-19T04:20:51;18.40;;;7.60;;
66800;SDS011;53703;50.326;19.122;2023-06-19T04:23:45;20.70;;;9.80;;
66800;SDS011;53703;50.326;19.122;2023-06-19T04:26:40;18.90;;;10.00;;
66800;SDS011;53703;50.326;19.122;2023-06-19T04:29:34;16.00;;;9.30;;
66800;SDS011;53703;50.326;19.122;2023-06-19T04:32:30;17.20;;;10.40;;
66800;SDS011;53703;50.326;19.122;2023-06-19T04:35:27;20.30;;;10.50;;
66800;SDS011;53703;50.326;19.122;2023-06-19T04:38:23;19.80;;;10.00;;
66800;SDS011;53703;50.326;19.122;2023-06-19T04:41:44;20.30;;;10.10;;
66800;SDS011;53703;50.326;19.122;2023-06-19T04:57:01;19.40;;;11.10;;
66800;SDS011;53703;50.326;19.122;2023-06-19T04:59:55;20.00;;;10.60;;
66800;SDS011;53703;50.326;19.122;2023-06-19T05:22:00;17.40;;;10.00;;
66800;SDS011;53703;50.326;19.122;2023-06-19T05:24:54;19.70;;;10.50;;
66800;SDS011;53703;50.326;19.122;2023-06-19T05:27:48;18.70;;;10.40;;
66800;SDS011;53703;50.326;19.122;2023-06-19T05:30:42;18.50;;;9.80;;
66800;SDS011;53703;50.326;19.122;2023-06-19T05:33:36;18.60;;;10.30;;
66800;SDS011;53703;50.326;19.122;2023-06-19T05:36:30;18.70;;;10.60;;
66800;SDS011;53703;50.326;19.122;2023-06-19T05:39:24;19.90;;;10.80;;
66800;SDS011;53703;50.326;19.122;2023-06-19T05:42:18;20.40;;;11.20;;
66800;SDS011;53703;50.326;19.122;2023-06-19T05:45:13;18.50;;;10.40;;
66800;SDS011;53703;50.326;19.122;2023-06-19T05:48:07;21.40;;;12.80;;
66800;SDS011;53703;50.326;19.122;2023-06-19T05:51:02;18.70;;;10.30;;
66800;SDS011;53703;50.326;19.122;2023-06-19T05:53:56;20.30;;;12.60;;
66800;SDS011;53703;50.326;19.122;2023-06-19T05:56:55;24.30;;;12.30;;
66800;SDS011;53703;50.326;19.122;2023-06-19T05:59:49;20.90;;;11.80;;
66800;SDS011;53703;50.326;19.122;2023-06-19T06:02:44;19.00;;;11.50;;
66800;SDS011;53703;50.326;19.122;2023-06-19T06:05:39;19.80;;;11.60;;
66800;SDS011;53703;50.326;19.122;2023-06-19T06:08:34;18.70;;;11.00;;
66800;SDS011;53703;50.326;19.122;2023-06-19T06:11:28;18.70;;;10.50;;
66800;SDS011;53703;50.326;19.122;2023-06-19T06:14:23;20.30;;;11.00;;
66800;SDS011;53703;50.326;19.122;2023-06-19T06:17:18;20.80;;;11.40;;
66800;SDS011;53703;50.326;19.122;2023-06-19T06:20:12;21.80;;;11.90;;
66800;SDS011;53703;50.326;19.122;2023-06-19T06:23:07;21.90;;;11.80;;
66800;SDS011;53703;50.326;19.122;2023-06-19T06:26:02;19.80;;;11.30;;
66800;SDS011;53703;50.326;19.122;2023-06-19T06:28:56;24.30;;;13.20;;
66800;SDS011;53703;50.326;19.122;2023-06-19T06:31:50;21.30;;;11.60;;
66800;SDS011;53703;50.326;19.122;2023-06-19T06:34:57;21.10;;;11.60;;
66800;SDS011;53703;50.326;19.122;2023-06-19T06:37:51;20.00;;;11.60;;
66800;SDS011;53703;50.326;19.122;2023-06-19T06:40:46;18.30;;;10.90;;
66800;SDS011;53703;50.326;19.122;2023-06-19T06:43:42;22.00;;;11.80;;
66800;SDS011;53703;50.326;19.122;2023-06-19T06:46:37;20.80;;;11.50;;
66800;SDS011;53703;50.326;19.122;2023-06-19T06:49:31;21.50;;;12.40;;
66800;SDS011;53703;50.326;19.122;2023-06-19T06:52:26;23.90;;;11.60;;
66800;SDS011;53703;50.326;19.122;2023-06-19T06:55:21;20.40;;;12.10;;
66800;SDS011;53703;50.326;19.122;2023-06-19T06:58:16;96.50;;;29.10;;
66800;SDS011;53703;50.326;19.122;2023-06-19T07:01:10;449.00;;;99.60;;
66800;SDS011;53703;50.326;19.122;2023-06-19T07:04:05;546.10;;;119.60;;
66800;SDS011;53703;50.326;19.122;2023-06-19T07:06:59;401.00;;;93.80;;
66800;SDS011;53703;50.326;19.122;2023-06-19T07:09:55;384.70;;;82.50;;
66800;SDS011;53703;50.326;19.122;2023-06-19T07:12:50;283.00;;;66.40;;
66800;SDS011;53703;50.326;19.122;2023-06-19T07:15:54;202.20;;;47.30;;
66800;SDS011;53703;50.326;19.122;2023-06-19T07:18:49;238.40;;;56.40;;
66800;SDS011;53703;50.326;19.122;2023-06-19T07:21:43;217.50;;;53.30;;
66800;SDS011;53703;50.326;19.122;2023-06-19T07:24:38;204.20;;;50.60;;
66800;SDS011;53703;50.326;19.122;2023-06-19T07:27:34;197.40;;;49.90;;
66800;SDS011;53703;50.326;19.122;2023-06-19T07:30:28;167.40;;;43.50;;
66800;SDS011;53703;50.326;19.122;2023-06-19T07:33:22;166.30;;;41.80;;
66800;SDS011;53703;50.326;19.122;2023-06-19T07:36:17;157.50;;;40.00;;
66800;SDS011;53703;50.326;19.122;2023-06-19T07:39:11;138.40;;;35.20;;
66800;SDS011;53703;50.326;19.122;2023-06-19T07:42:06;148.90;;;36.10;;
66800;SDS011;53703;50.326;19.122;2023-06-19T07:45:02;123.20;;;33.40;;
66800;SDS011;53703;50.326;19.122;2023-06-19T07:47:57;114.30;;;30.00;;
66800;SDS011;53703;50.326;19.122;2023-06-19T07:50:52;125.90;;;33.10;;
66800;SDS011;53703;50.326;19.122;2023-06-19T07:53:46;93.80;;;24.50;;
66800;SDS011;53703;50.326;19.122;2023-06-19T07:56:40;91.00;;;25.40;;
66800;SDS011;53703;50.326;19.122;2023-06-19T07:59:34;101.40;;;27.00;;
66800;SDS011;53703;50.326;19.122;2023-06-19T08:02:28;88.10;;;25.20;;
66800;SDS011;53703;50.326;19.122;2023-06-19T08:05:23;88.80;;;22.70;;
66800;SDS011;53703;50.326;19.122;2023-06-19T08:08:17;77.30;;;21.70;;
66800;SDS011;53703;50.326;19.122;2023-06-19T08:11:11;82.40;;;23.40;;
66800;SDS011;53703;50.326;19.122;2023-06-19T08:14:06;70.50;;;21.10;;
66800;SDS011;53703;50.326;19.122;2023-06-19T08:17:00;68.60;;;18.40;;
66800;SDS011;53703;50.326;19.122;2023-06-19T08:19:55;68.70;;;18.60;;
66800;SDS011;53703;50.326;19.122;2023-06-19T08:22:49;68.80;;;19.60;;
66800;SDS011;53703;50.326;19.122;2023-06-19T08:25:45;67.60;;;20.40;;
66800;SDS011;53703;50.326;19.122;2023-06-19T08:28:39;67.50;;;18.10;;
66800;SDS011;53703;50.326;19.122;2023-06-19T08:31:35;52.60;;;16.40;;
66800;SDS011;53703;50.326;19.122;2023-06-19T08:34:50;56.00;;;17.00;;
66800;SDS011;53703;50.326;19.122;2023-06-19T08:37:44;50.60;;;16.10;;
66800;SDS011;53703;50.326;19.122;2023-06-19T08:40:26;43.50;;;14.80;;
66800;SDS011;53703;50.326;19.122;2023-06-19T08:43:20;33.90;;;13.20;;
66800;SDS011;53703;50.326;19.122;2023-06-19T08:46:17;46.40;;;15.10;;
66800;SDS011;53703;50.326;19.122;2023-06-19T08:49:12;46.00;;;14.40;;
66800;SDS011;53703;50.326;19.122;2023-06-19T08:52:07;38.50;;;13.20;;
66800;SDS011;53703;50.326;19.122;2023-06-19T08:55:02;38.30;;;13.70;;
66800;SDS011;53703;50.326;19.122;2023-06-19T08:57:58;37.50;;;11.80;;
66800;SDS011;53703;50.326;19.122;2023-06-19T09:00:52;37.10;;;12.90;;
66800;SDS011;53703;50.326;19.122;2023-06-19T09:03:46;34.00;;;12.50;;
66800;SDS011;53703;50.326;19.122;2023-06-19T09:06:51;29.00;;;10.70;;
66800;SDS011;53703;50.326;19.122;2023-06-19T09:09:48;28.30;;;10.70;;
66800;SDS011;53703;50.326;19.122;2023-06-19T09:12:44;23.90;;;10.70;;
66800;SDS011;53703;50.326;19.122;2023-06-19T09:15:56;30.00;;;11.20;;
66800;SDS011;53703;50.326;19.122;2023-06-19T09:18:53;27.00;;;11.50;;
66800;SDS011;53703;50.326;19.122;2023-06-19T09:21:47;26.90;;;10.10;;
66800;SDS011;53703;50.326;19.122;2023-06-19T09:24:42;23.40;;;9.30;;
66800;SDS011;53703;50.326;19.122;2023-06-19T09:27:37;25.30;;;10.70;;
66800;SDS011;53703;50.326;19.122;2023-06-19T09:30:31;24.10;;;9.80;;
66800;SDS011;53703;50.326;19.122;2023-06-19T09:33:26;21.90;;;9.60;;
66800;SDS011;53703;50.326;19.122;2023-06-19T09:36:22;24.20;;;9.60;;
66800;SDS011;53703;50.326;19.122;2023-06-19T09:39:18;17.80;;;8.50;;
66800;SDS011;53703;50.326;19.122;2023-06-19T09:42:14;19.00;;;9.20;;
66800;SDS011;53703;50.326;19.122;2023-06-19T09:45:12;22.60;;;9.20;;
66800;SDS011;53703;50.326;19.122;2023-06-19T09:48:10;20.80;;;9.40;;
66800;SDS011;53703;50.326;19.122;2023-06-19T09:51:09;22.50;;;9.80;;
66800;SDS011;53703;50.326;19.122;2023-06-19T09:54:08;20.30;;;9.90;;
66800;SDS011;53703;50.326;19.122;2023-06-19T09:57:03;17.00;;;9.10;;
66800;SDS011;53703;50.326;19.122;2023-06-19T09:59:58;18.00;;;9.10;;
66800;SDS011;53703;50.326;19.122;2023-06-19T10:03:00;19.20;;;9.50;;
66800;SDS011;53703;50.326;19.122;2023-06-19T10:06:00;19.00;;;9.00;;
66800;SDS011;53703;50.326;19.122;2023-06-19T10:08:55;19.40;;;9.70;;
66800;SDS011;53703;50.326;19.122;2023-06-19T10:11:57;18.60;;;9.60;;
66800;SDS011;53703;50.326;19.122;2023-06-19T10:15:12;17.00;;;9.30;;
66800;SDS011;53703;50.326;19.122;2023-06-19T10:18:12;21.00;;;8.80;;
66800;SDS011;53703;50.326;19.122;2023-06-19T10:21:23;19.90;;;9.70;;
66800;SDS011;53703;50.326;19.122;2023-06-19T10:24:18;21.40;;;8.80;;
66800;SDS011;53703;50.326;19.122;2023-06-19T10:27:20;18.20;;;9.50;;
66800;SDS011;53703;50.326;19.122;2023-06-19T10:30:19;15.60;;;8.80;;
66800;SDS011;53703;50.326;19.122;2023-06-19T10:33:13;15.50;;;8.00;;
66800;SDS011;53703;50.326;19.122;2023-06-19T10:36:16;15.10;;;8.40;;
66800;SDS011;53703;50.326;19.122;2023-06-19T10:39:13;17.40;;;9.00;;
66800;SDS011;53703;50.326;19.122;2023-06-19T10:42:09;15.00;;;8.40;;
66800;SDS011;53703;50.326;19.122;2023-06-19T10:45:06;14.40;;;8.40;;
66800;SDS011;53703;50.326;19.122;2023-06-19T10:48:03;15.70;;;8.80;;
66800;SDS011;53703;50.326;19.122;2023-06-19T10:50:57;15.70;;;8.50;;
66800;SDS011;53703;50.326;19.122;2023-06-19T10:53:54;14.30;;;7.90;;
66800;SDS011;53703;50.326;19.122;2023-06-19T10:56:49;15.20;;;8.70;;
66800;SDS011;53703;50.326;19.122;2023-06-19T10:59:43;15.60;;;8.50;;
66800;SDS011;53703;50.326;19.122;2023-06-19T11:02:36;16.60;;;8.60;;
66800;SDS011;53703;50.326;19.122;2023-06-19T11:05:27;14.40;;;8.30;;
66800;SDS011;53703;50.326;19.122;2023-06-19T11:08:23;16.30;;;8.50;;
66800;SDS011;53703;50.326;19.122;2023-06-19T11:11:17;18.90;;;8.50;;
66800;SDS011;53703;50.326;19.122;2023-06-19T11:14:12;12.70;;;7.50;;
66800;SDS011;53703;50.326;19.122;2023-06-19T11:17:07;13.30;;;6.70;;
66800;SDS011;53703;50.326;19.122;2023-06-19T11:20:02;15.90;;;6.80;;
66800;SDS011;53703;50.326;19.122;2023-06-19T11:23:05;16.70;;;7.80;;
66800;SDS011;53703;50.326;19.122;2023-06-19T11:26:04;14.50;;;7.10;;
66800;SDS011;53703;50.326;19.122;2023-06-19T11:29:00;11.90;;;7.00;;
66800;SDS011;53703;50.326;19.122;2023-06-19T11:32:04;13.40;;;7.30;;
66800;SDS011;53703;50.326;19.122;2023-06-19T11:35:06;10.70;;;6.90;;
66800;SDS011;53703;50.326;19.122;2023-06-19T11:38:02;12.70;;;7.40;;
66800;SDS011;53703;50.326;19.122;2023-06-19T11:40:57;12.10;;;7.40;;
66800;SDS011;53703;50.326;19.122;2023-06-19T11:43:57;10.80;;;7.30;;
66800;SDS011;53703;50.326;19.122;2023-06-19T11:46:59;12.10;;;7.10;;
66800;SDS011;53703;50.326;19.122;2023-06-19T11:49:55;11.30;;;7.20;;
66800;SDS011;53703;50.326;19.122;2023-06-19T11:52:49;11.80;;;6.40;;
66800;SDS011;53703;50.326;19.122;2023-06-19T11:56:03;9.90;;;6.80;;
66800;SDS011;53703;50.326;19.122;2023-06-19T11:58:58;9.50;;;6.20;;
66800;SDS011;53703;50.326;19.122;2023-06-19T12:01:52;10.50;;;6.50;;
66800;SDS011;53703;50.326;19.122;2023-06-19T12:04:49;10.60;;;6.60;;
66800;SDS011;53703;50.326;19.122;2023-06-19T12:07:43;10.70;;;6.60;;
66800;SDS011;53703;50.326;19.122;2023-06-19T12:10:37;9.60;;;5.80;;
66800;SDS011;53703;50.326;19.122;2023-06-19T12:13:31;10.60;;;6.40;;
66800;SDS011;53703;50.326;19.122;2023-06-19T12:16:25;13.10;;;6.60;;
66800;SDS011;53703;50.326;19.122;2023-06-19T12:19:19;11.70;;;6.50;;
66800;SDS011;53703;50.326;19.122;2023-06-19T12:22:13;9.50;;;5.80;;
66800;SDS011;53703;50.326;19.122;2023-06-19T12:25:08;10.40;;;6.50;;
66800;SDS011;53703;50.326;19.122;2023-06-19T12:28:02;9.80;;;6.60;;
66800;SDS011;53703;50.326;19.122;2023-06-19T12:30:59;10.40;;;6.10;;
66800;SDS011;53703;50.326;19.122;2023-06-19T12:33:57;9.00;;;5.60;;
66800;SDS011;53703;50.326;19.122;2023-06-19T12:37:04;9.70;;;5.90;;
66800;SDS011;53703;50.326;19.122;2023-06-19T12:39:59;9.70;;;5.50;;
66800;SDS011;53703;50.326;19.122;2023-06-19T12:42:59;8.80;;;5.90;;
66800;SDS011;53703;50.326;19.122;2023-06-19T12:45:53;9.50;;;5.90;;
66800;SDS011;53703;50.326;19.122;2023-06-19T12:48:48;8.50;;;5.60;;
66800;SDS011;53703;50.326;19.122;2023-06-19T12:51:47;8.80;;;6.10;;
66800;SDS011;53703;50.326;19.122;2023-06-19T12:54:42;8.60;;;5.80;;
66800;SDS011;53703;50.326;19.122;2023-06-19T12:57:36;9.70;;;5.50;;
66800;SDS011;53703;50.326;19.122;2023-06-19T13:00:34;9.60;;;6.20;;
66800;SDS011;53703;50.326;19.122;2023-06-19T13:03:28;10.00;;;6.00;;
66800;SDS011;53703;50.326;19.122;2023-06-19T13:06:22;8.90;;;5.90;;
66800;SDS011;53703;50.326;19.122;2023-06-19T13:09:16;10.10;;;6.00;;
66800;SDS011;53703;50.326;19.122;2023-06-19T13:12:11;8.60;;;5.90;;
66800;SDS011;53703;50.326;19.122;2023-06-19T13:15:07;8.80;;;5.90;;
66800;SDS011;53703;50.326;19.122;2023-06-19T13:18:02;8.00;;;5.90;;
66800;SDS011;53703;50.326;19.122;2023-06-19T13:20:56;8.50;;;5.80;;
66800;SDS011;53703;50.326;19.122;2023-06-19T13:23:51;7.50;;;5.40;;
66800;SDS011;53703;50.326;19.122;2023-06-19T13:26:45;7.90;;;5.80;;
66800;SDS011;53703;50.326;19.122;2023-06-19T13:29:39;9.40;;;5.70;;
66800;SDS011;53703;50.326;19.122;2023-06-19T13:32:33;9.60;;;5.40;;
66800;SDS011;53703;50.326;19.122;2023-06-19T13:35:28;8.10;;;5.90;;
66800;SDS011;53703;50.326;19.122;2023-06-19T13:38:22;8.20;;;5.40;;
66800;SDS011;53703;50.326;19.122;2023-06-19T13:41:16;7.70;;;5.70;;
66800;SDS011;53703;50.326;19.122;2023-06-19T13:44:10;11.30;;;5.90;;
66800;SDS011;53703;50.326;19.122;2023-06-19T13:47:05;9.40;;;5.90;;
66800;SDS011;53703;50.326;19.122;2023-06-19T13:50:00;24.30;;;8.30;;
66800;SDS011;53703;50.326;19.122;2023-06-19T13:52:58;66.20;;;23.10;;
66800;SDS011;53703;50.326;19.122;2023-06-19T13:58:46;35.40;;;14.10;;
66800;SDS011;53703;50.326;19.122;2023-06-19T14:01:40;47.20;;;16.80;;
66800;SDS011;53703;50.326;19.122;2023-06-19T14:04:34;42.10;;;15.80;;
66800;SDS011;53703;50.326;19.122;2023-06-19T14:07:31;42.10;;;16.30;;
66800;SDS011;53703;50.326;19.122;2023-06-19T14:10:26;43.50;;;17.90;;
66800;SDS011;53703;50.326;19.122;2023-06-19T14:13:20;62.50;;;22.40;;
66800;SDS011;53703;50.326;19.122;2023-06-19T14:16:14;59.10;;;20.60;;
66800;SDS011;53703;50.326;19.122;2023-06-19T14:19:08;48.90;;;18.10;;
66800;SDS011;53703;50.326;19.122;2023-06-19T14:22:02;45.00;;;17.10;;
66800;SDS011;53703;50.326;19.122;2023-06-19T14:24:57;47.00;;;17.90;;
66800;SDS011;53703;50.326;19.122;2023-06-19T14:27:53;39.50;;;16.70;;
66800;SDS011;53703;50.326;19.122;2023-06-19T14:30:47;31.30;;;14.60;;
66800;SDS011;53703;50.326;19.122;2023-06-19T14:33:41;41.10;;;16.30;;
66800;SDS011;53703;50.326;19.122;2023-06-19T14:36:35;36.80;;;13.30;;
66800;SDS011;53703;50.326;19.122;2023-06-19T14:39:30;33.60;;;13.60;;
66800;SDS011;53703;50.326;19.122;2023-06-19T14:42:25;30.20;;;14.00;;
66800;SDS011;53703;50.326;19.122;2023-06-19T14:45:19;30.80;;;13.20;;
66800;SDS011;53703;50.326;19.122;2023-06-19T14:48:13;28.80;;;11.90;;
66800;SDS011;53703;50.326;19.122;2023-06-19T14:51:08;23.20;;;11.00;;
66800;SDS011;53703;50.326;19.122;2023-06-19T14:54:02;25.30;;;10.50;;
66800;SDS011;53703;50.326;19.122;2023-06-19T14:56:56;24.30;;;10.80;;
66800;SDS011;53703;50.326;19.122;2023-06-19T14:59:50;17.20;;;9.50;;
66800;SDS011;53703;50.326;19.122;2023-06-19T15:02:44;23.50;;;10.50;;
66800;SDS011;53703;50.326;19.122;2023-06-19T15:05:38;22.20;;;10.20;;
66800;SDS011;53703;50.326;19.122;2023-06-19T15:08:32;18.90;;;9.70;;
66800;SDS011;53703;50.326;19.122;2023-06-19T15:11:29;21.10;;;9.60;;
66800;SDS011;53703;50.326;19.122;2023-06-19T15:14:23;22.90;;;9.60;;
66800;SDS011;53703;50.326;19.122;2023-06-19T15:17:18;18.40;;;9.10;;
66800;SDS011;53703;50.326;19.122;2023-06-19T15:20:13;17.60;;;8.70;;
66800;SDS011;53703;50.326;19.122;2023-06-19T15:23:09;17.80;;;9.10;;
66800;SDS011;53703;50.326;19.122;2023-06-19T15:26:04;15.20;;;8.10;;
66800;SDS011;53703;50.326;19.122;2023-06-19T15:28:58;19.90;;;9.10;;
66800;SDS011;53703;50.326;19.122;2023-06-19T15:31:52;17.30;;;7.80;;
66800;SDS011;53703;50.326;19.122;2023-06-19T15:34:46;17.30;;;8.70;;
66800;SDS011;53703;50.326;19.122;2023-06-19T15:37:40;16.80;;;8.40;;
66800;SDS011;53703;50.326;19.122;2023-06-19T15:40:34;16.30;;;8.20;;
66800;SDS011;53703;50.326;19.122;2023-06-19T15:43:28;15.60;;;8.10;;
66800;SDS011;53703;50.326;19.122;2023-06-19T15:46:22;14.90;;;8.60;;
66800;SDS011;53703;50.326;19.122;2023-06-19T15:49:16;18.20;;;8.60;;
66800;SDS011;53703;50.326;19.122;2023-06-19T15:52:10;14.20;;;7.80;;
66800;SDS011;53703;50.326;19.122;2023-06-19T15:55:04;13.90;;;8.30;;
66800;SDS011;53703;50.326;19.122;2023-06-19T15:57:59;14.10;;;7.90;;
66800;SDS011;53703;50.326;19.122;2023-06-19T16:00:54;13.50;;;8.30;;
66800;SDS011;53703;50.326;19.122;2023-06-19T16:03:48;14.50;;;7.80;;
66800;SDS011;53703;50.326;19.122;2023-06-19T16:06:42;12.80;;;7.30;;
66800;SDS011;53703;50.326;19.122;2023-06-19T16:09:36;15.40;;;7.40;;
66800;SDS011;53703;50.326;19.122;2023-06-19T16:12:45;10.40;;;6.80;;
66800;SDS011;53703;50.326;19.122;2023-06-19T16:15:40;12.20;;;7.20;;
66800;SDS011;53703;50.326;19.122;2023-06-19T16:18:34;16.10;;;7.30;;
66800;SDS011;53703;50.326;19.122;2023-06-19T16:21:28;10.50;;;7.10;;
66800;SDS011;53703;50.326;19.122;2023-06-19T16:24:22;11.50;;;6.80;;
66800;SDS011;53703;50.326;19.122;2023-06-19T16:27:17;11.60;;;6.90;;
66800;SDS011;53703;50.326;19.122;2023-06-19T16:30:12;11.80;;;7.30;;
66800;SDS011;53703;50.326;19.122;2023-06-19T16:33:07;14.50;;;7.20;;
66800;SDS011;53703;50.326;19.122;2023-06-19T16:36:01;12.80;;;6.60;;
66800;SDS011;53703;50.326;19.122;2023-06-19T16:38:58;10.30;;;7.00;;
66800;SDS011;53703;50.326;19.122;2023-06-19T16:41:52;10.80;;;6.40;;
66800;SDS011;53703;50.326;19.122;2023-06-19T16:44:46;11.60;;;7.00;;
66800;SDS011;53703;50.326;19.122;2023-06-19T16:47:40;10.60;;;7.50;;
66800;SDS011;53703;50.326;19.122;2023-06-19T16:50:34;12.40;;;7.10;;
66800;SDS011;53703;50.326;19.122;2023-06-19T16:53:29;10.40;;;6.70;;
66800;SDS011;53703;50.326;19.122;2023-06-19T16:56:23;11.80;;;7.40;;
66800;SDS011;53703;50.326;19.122;2023-06-19T16:59:16;9.70;;;7.00;;
66800;SDS011;53703;50.326;19.122;2023-06-19T17:02:11;10.30;;;6.70;;
66800;SDS011;53703;50.326;19.122;2023-06-19T17:05:06;9.70;;;6.80;;
66800;SDS011;53703;50.326;19.122;2023-06-19T17:08:01;16.20;;;7.20;;
66800;SDS011;53703;50.326;19.122;2023-06-19T17:10:55;9.90;;;6.40;;
66800;SDS011;53703;50.326;19.122;2023-06-19T17:13:49;11.10;;;6.60;;
66800;SDS011;53703;50.326;19.122;2023-06-19T17:16:43;11.00;;;6.60;;
66800;SDS011;53703;50.326;19.122;2023-06-19T17:19:37;8.30;;;6.50;;
66800;SDS011;53703;50.326;19.122;2023-06-19T17:22:31;9.60;;;6.70;;
66800;SDS011;53703;50.326;19.122;2023-06-19T17:25:25;10.10;;;6.60;;
66800;SDS011;53703;50.326;19.122;2023-06-19T17:28:19;10.40;;;6.60;;
66800;SDS011;53703;50.326;19.122;2023-06-19T17:31:13;12.40;;;7.10;;
66800;SDS011;53703;50.326;19.122;2023-06-19T17:34:06;8.80;;;6.80;;
66800;SDS011;53703;50.326;19.122;2023-06-19T17:37:00;9.80;;;6.70;;